Pendleton, Oregon
Current Conditions -  °F | °C
As of 10:53 AM on Thursday 30 Oct 2014 (Local Time) from KPDT Reporting Station
Broken Clouds Broken Clouds  
Wind Chill: 55°   Ceiling: 8000
Heat Index: 55°   Visibility: 10mi
Dew Point: 49°   Wind: 6mph
Humidity: 80%   Direction: 320°NW
Pressure: 29.99"   Gusts: NA
Location:  45.67°N, 118.78°W
Report Text: KPDT 301753Z 32005KT 10SM BKN080 BKN095 13/09 A2999 RMK AO2 SLP150 60000 T01280094 10128 20094 58016
Loading
Personal Weather Stations






























Interactive Weather Map
Tropical Storm Tracking
New forecast layout! Learn more

10-Day Weather Forecast

Advertisements
Track Severe Weather on mobile